sensor_id;sensor_type;location;lat;lon;timestamp;pressure;altitude;pressure_sealevel;temperature;humidity
63946;BME280;50122;56.330;43.838;2022-08-20T11:56:51;102255.34;;;43.26;10.61
63946;BME280;50122;56.330;43.838;2022-08-20T11:59:23;102242.44;;;43.91;10.10
63946;BME280;50122;56.330;43.838;2022-08-20T12:01:50;102242.28;;;44.79;9.50
63946;BME280;50122;56.330;43.838;2022-08-20T12:04:29;102236.16;;;45.62;9.00
63946;BME280;50122;56.330;43.838;2022-08-20T12:07:16;102217.06;;;45.54;9.24
63946;BME280;50122;56.330;43.838;2022-08-20T12:09:44;102229.03;;;45.37;9.86
63946;BME280;50122;56.330;43.838;2022-08-20T12:12:18;102237.88;;;45.29;8.99
63946;BME280;50122;56.330;43.838;2022-08-20T12:14:46;102214.50;;;44.84;9.84
63946;BME280;50122;56.330;43.838;2022-08-20T12:17:15;102208.31;;;44.65;9.23
63946;BME280;50122;56.330;43.838;2022-08-20T12:19:45;102216.22;;;44.56;10.17
63946;BME280;50122;56.330;43.838;2022-08-20T12:22:12;102214.00;;;44.87;9.42
63946;BME280;50122;56.330;43.838;2022-08-20T12:24:51;102209.03;;;43.44;10.24
63946;BME280;50122;56.330;43.838;2022-08-20T12:27:20;102206.34;;;42.52;10.78
63946;BME280;50122;56.330;43.838;2022-08-20T12:29:48;102198.16;;;42.76;11.24
63946;BME280;50122;56.330;43.838;2022-08-20T12:32:23;102200.31;;;43.28;10.30
63946;BME280;50122;56.330;43.838;2022-08-20T12:34:51;102196.56;;;43.46;10.02
63946;BME280;50122;56.330;43.838;2022-08-20T12:37:20;102204.44;;;43.85;9.98
63946;BME280;50122;56.330;43.838;2022-08-20T12:39:50;102203.44;;;44.72;9.77
63946;BME280;50122;56.330;43.838;2022-08-20T12:42:18;102180.16;;;45.01;9.79
63946;BME280;50122;56.330;43.838;2022-08-20T12:44:46;102186.59;;;45.35;9.35
63946;BME280;50122;56.330;43.838;2022-08-20T12:47:31;102194.91;;;45.30;9.19
63946;BME280;50122;56.330;43.838;2022-08-20T12:50:01;102179.75;;;44.46;9.61
63946;BME280;50122;56.330;43.838;2022-08-20T12:52:31;102189.19;;;43.87;9.78
63946;BME280;50122;56.330;43.838;2022-08-20T12:54:58;102176.59;;;43.61;10.44
63946;BME280;50122;56.330;43.838;2022-08-20T12:57:30;102173.31;;;44.17;10.13
63946;BME280;50122;56.330;43.838;2022-08-20T13:00:00;102178.50;;;43.96;10.41
63946;BME280;50122;56.330;43.838;2022-08-20T13:02:29;102172.00;;;43.67;10.37
63946;BME280;50122;56.330;43.838;2022-08-20T13:04:56;102171.22;;;43.83;10.35
63946;BME280;50122;56.330;43.838;2022-08-20T13:07:27;102162.38;;;43.98;9.87
63946;BME280;50122;56.330;43.838;2022-08-20T13:09:55;102167.13;;;44.55;9.67
63946;BME280;50122;56.330;43.838;2022-08-20T13:12:21;102171.75;;;44.96;10.07
63946;BME280;50122;56.330;43.838;2022-08-20T13:14:50;102159.56;;;45.02;10.17
63946;BME280;50122;56.330;43.838;2022-08-20T13:17:17;102152.63;;;44.87;9.41
63946;BME280;50122;56.330;43.838;2022-08-20T13:19:49;102152.41;;;44.02;9.95
63946;BME280;50122;56.330;43.838;2022-08-20T13:22:16;102158.41;;;43.70;10.78
63946;BME280;50122;56.330;43.838;2022-08-20T13:24:43;102135.91;;;43.72;10.64
63946;BME280;50122;56.330;43.838;2022-08-20T13:27:13;102145.72;;;43.51;10.78
63946;BME280;50122;56.330;43.838;2022-08-20T13:29:52;102150.59;;;42.05;11.61
63946;BME280;50122;56.330;43.838;2022-08-20T13:32:24;102139.03;;;42.69;11.35
63946;BME280;50122;56.330;43.838;2022-08-20T13:34:51;102146.28;;;43.88;10.99
63946;BME280;50122;56.330;43.838;2022-08-20T13:37:20;102142.81;;;44.10;10.31
63946;BME280;50122;56.330;43.838;2022-08-20T13:39:51;102135.63;;;43.97;9.58
63946;BME280;50122;56.330;43.838;2022-08-20T13:42:18;102109.28;;;42.81;10.87
63946;BME280;50122;56.330;43.838;2022-08-20T13:44:45;102134.84;;;43.26;10.73
63946;BME280;50122;56.330;43.838;2022-08-20T13:47:25;102141.25;;;43.26;10.61
63946;BME280;50122;56.330;43.838;2022-08-20T13:50:16;102146.94;;;43.55;10.65
63946;BME280;50122;56.330;43.838;2022-08-20T13:52:45;102141.13;;;43.68;10.22
63946;BME280;50122;56.330;43.838;2022-08-20T13:55:17;102135.72;;;43.50;11.22
63946;BME280;50122;56.330;43.838;2022-08-20T13:57:45;102136.88;;;42.95;10.95
63946;BME280;50122;56.330;43.838;2022-08-20T14:00:24;102149.50;;;41.00;12.91
63946;BME280;50122;56.330;43.838;2022-08-20T14:02:58;102137.59;;;38.63;14.26
63946;BME280;50122;56.330;43.838;2022-08-20T14:05:26;102143.59;;;37.42;14.84
63946;BME280;50122;56.330;43.838;2022-08-20T14:07:53;102142.59;;;36.56;15.46
63946;BME280;50122;56.330;43.838;2022-08-20T14:10:23;102142.91;;;36.46;16.22
63946;BME280;50122;56.330;43.838;2022-08-20T14:12:51;102143.75;;;37.12;15.23
63946;BME280;50122;56.330;43.838;2022-08-20T14:15:18;102137.22;;;37.41;15.08
63946;BME280;50122;56.330;43.838;2022-08-20T14:17:54;102134.44;;;38.11;14.74
63946;BME280;50122;56.330;43.838;2022-08-20T14:20:27;102144.03;;;38.15;14.33
63946;BME280;50122;56.330;43.838;2022-08-20T14:22:58;102131.25;;;38.83;14.22
63946;BME280;50122;56.330;43.838;2022-08-20T14:25:26;102132.97;;;39.04;15.34
63946;BME280;50122;56.330;43.838;2022-08-20T14:27:53;102131.06;;;39.31;13.79
63946;BME280;50122;56.330;43.838;2022-08-20T14:30:28;102091.94;;;39.14;13.09
63946;BME280;50122;56.330;43.838;2022-08-20T14:32:58;102133.19;;;39.02;13.57
63946;BME280;50122;56.330;43.838;2022-08-20T14:35:25;102130.66;;;38.87;14.03
63946;BME280;50122;56.330;43.838;2022-08-20T14:37:52;102140.81;;;38.73;15.02
63946;BME280;50122;56.330;43.838;2022-08-20T14:40:21;102136.59;;;38.78;15.38
63946;BME280;50122;56.330;43.838;2022-08-20T14:42:48;102137.44;;;38.98;13.68
63946;BME280;50122;56.330;43.838;2022-08-20T14:45:17;102131.22;;;38.63;14.17
63946;BME280;50122;56.330;43.838;2022-08-20T14:47:48;102144.31;;;38.27;15.23
63946;BME280;50122;56.330;43.838;2022-08-20T14:50:31;102139.63;;;38.21;15.55
63946;BME280;50122;56.330;43.838;2022-08-20T14:53:01;102139.91;;;38.53;14.79
63946;BME280;50122;56.330;43.838;2022-08-20T14:55:31;102135.94;;;38.76;14.48
63946;BME280;50122;56.330;43.838;2022-08-20T14:57:58;102131.25;;;38.69;14.29
63946;BME280;50122;56.330;43.838;2022-08-20T15:00:28;102126.59;;;38.15;15.47
63946;BME280;50122;56.330;43.838;2022-08-20T15:02:55;102133.78;;;37.32;15.46
63946;BME280;50122;56.330;43.838;2022-08-20T15:05:22;102130.59;;;36.64;16.33
63946;BME280;50122;56.330;43.838;2022-08-20T15:07:50;102127.56;;;35.33;17.64
63946;BME280;50122;56.330;43.838;2022-08-20T15:10:23;102121.78;;;34.26;18.39
63946;BME280;50122;56.330;43.838;2022-08-20T15:12:50;102104.72;;;33.60;18.86
63946;BME280;50122;56.330;43.838;2022-08-20T15:15:19;102118.09;;;33.63;19.16
63946;BME280;50122;56.330;43.838;2022-08-20T15:17:48;102116.06;;;33.57;19.81
63946;BME280;50122;56.330;43.838;2022-08-20T15:20:19;102108.66;;;33.66;19.57
63946;BME280;50122;56.330;43.838;2022-08-20T15:22:48;102114.94;;;33.83;19.62
63946;BME280;50122;56.330;43.838;2022-08-20T15:25:17;102106.41;;;34.49;18.65
63946;BME280;50122;56.330;43.838;2022-08-20T15:27:44;102112.22;;;34.77;18.22
63946;BME280;50122;56.330;43.838;2022-08-20T15:30:15;102109.72;;;34.04;19.30
63946;BME280;50122;56.330;43.838;2022-08-20T15:32:42;102121.56;;;33.16;19.81
63946;BME280;50122;56.330;43.838;2022-08-20T15:35:09;102118.84;;;32.15;21.10
63946;BME280;50122;56.330;43.838;2022-08-20T15:37:42;102114.72;;;31.77;22.77
63946;BME280;50122;56.330;43.838;2022-08-20T15:40:10;102118.06;;;31.71;21.89
63946;BME280;50122;56.330;43.838;2022-08-20T15:42:42;102111.00;;;31.33;22.32
63946;BME280;50122;56.330;43.838;2022-08-20T15:45:13;102106.56;;;30.14;23.44
63946;BME280;50122;56.330;43.838;2022-08-20T15:47:59;102112.03;;;29.10;24.91
63946;BME280;50122;56.330;43.838;2022-08-20T15:50:39;102121.69;;;28.24;26.05
63946;BME280;50122;56.330;43.838;2022-08-20T15:53:11;102118.53;;;27.67;28.00
63946;BME280;50122;56.330;43.838;2022-08-20T15:56:01;102109.13;;;27.08;27.97
63946;BME280;50122;56.330;43.838;2022-08-20T15:58:41;102123.97;;;26.72;28.50
63946;BME280;50122;56.330;43.838;2022-08-20T16:01:19;102125.47;;;26.53;30.53
63946;BME280;50122;56.330;43.838;2022-08-20T16:06:45;102137.09;;;25.98;30.81
63946;BME280;50122;56.330;43.838;2022-08-20T16:12:08;102135.19;;;25.31;32.49
63946;BME280;50122;56.330;43.838;2022-08-20T16:14:39;102123.16;;;24.87;33.94
63946;BME280;50122;56.330;43.838;2022-08-20T16:17:13;102137.44;;;24.65;33.79
63946;BME280;50122;56.330;43.838;2022-08-20T16:19:55;102131.50;;;24.22;33.87
63946;BME280;50122;56.330;43.838;2022-08-20T16:22:28;102139.41;;;24.00;34.59
63946;BME280;50122;56.330;43.838;2022-08-20T16:24:56;102126.00;;;23.72;35.12
63946;BME280;50122;56.330;43.838;2022-08-20T16:27:26;102128.06;;;23.56;36.27
63946;BME280;50122;56.330;43.838;2022-08-20T16:30:00;102135.69;;;23.36;36.67
63946;BME280;50122;56.330;43.838;2022-08-20T16:32:40;102131.97;;;23.12;36.93
63946;BME280;50122;56.330;43.838;2022-08-20T16:38:02;102130.53;;;22.79;38.29
63946;BME280;50122;56.330;43.838;2022-08-20T16:40:46;102131.97;;;22.57;38.65
63946;BME280;50122;56.330;43.838;2022-08-20T16:46:17;102137.78;;;22.22;39.36
63946;BME280;50122;56.330;43.838;2022-08-20T16:48:51;102142.03;;;22.12;40.23
63946;BME280;50122;56.330;43.838;2022-08-20T16:51:36;102141.16;;;21.97;40.36
63946;BME280;50122;56.330;43.838;2022-08-20T16:54:03;102139.34;;;21.83;39.99
63946;BME280;50122;56.330;43.838;2022-08-20T16:56:37;102140.78;;;21.74;40.26
63946;BME280;50122;56.330;43.838;2022-08-20T16:59:10;102133.72;;;21.57;41.20
63946;BME280;50122;56.330;43.838;2022-08-20T17:02:09;102135.97;;;21.49;41.65
63946;BME280;50122;56.330;43.838;2022-08-20T17:04:44;102126.25;;;21.32;41.71
63946;BME280;50122;56.330;43.838;2022-08-20T17:07:49;102145.00;;;21.33;42.07
63946;BME280;50122;56.330;43.838;2022-08-20T17:10:31;102139.81;;;21.14;42.21
63946;BME280;50122;56.330;43.838;2022-08-20T17:13:29;102135.50;;;21.12;42.12
63946;BME280;50122;56.330;43.838;2022-08-20T17:16:02;102143.06;;;21.05;42.19
63946;BME280;50122;56.330;43.838;2022-08-20T17:18:33;102143.25;;;21.02;42.26
63946;BME280;50122;56.330;43.838;2022-08-20T17:21:27;102127.91;;;20.88;41.57
63946;BME280;50122;56.330;43.838;2022-08-20T17:24:33;102127.16;;;20.86;42.17
63946;BME280;50122;56.330;43.838;2022-08-20T17:27:04;102148.47;;;20.89;41.94
63946;BME280;50122;56.330;43.838;2022-08-20T17:29:50;102139.22;;;20.79;41.90
63946;BME280;50122;56.330;43.838;2022-08-20T17:32:25;102142.66;;;20.81;41.78
63946;BME280;50122;56.330;43.838;2022-08-20T17:34:55;102144.59;;;20.79;42.08
63946;BME280;50122;56.330;43.838;2022-08-20T17:37:25;102147.44;;;20.76;42.31
63946;BME280;50122;56.330;43.838;2022-08-20T17:39:55;102145.09;;;20.70;42.59
63946;BME280;50122;56.330;43.838;2022-08-20T17:42:30;102141.88;;;20.63;43.35
63946;BME280;50122;56.330;43.838;2022-08-20T17:45:06;102136.06;;;20.55;42.79
63946;BME280;50122;56.330;43.838;2022-08-20T17:47:37;102151.50;;;20.51;42.86
63946;BME280;50122;56.330;43.838;2022-08-20T17:50:19;102150.72;;;20.49;43.38
63946;BME280;50122;56.330;43.838;2022-08-20T17:52:54;102137.63;;;20.43;43.36
63946;BME280;50122;56.330;43.838;2022-08-20T17:55:21;102142.38;;;20.38;43.07
63946;BME280;50122;56.330;43.838;2022-08-20T17:57:55;102139.09;;;20.33;43.75
63946;BME280;50122;56.330;43.838;2022-08-20T18:00:26;102148.88;;;20.34;43.13
63946;BME280;50122;56.330;43.838;2022-08-20T18:03:00;102149.03;;;20.30;43.16
63946;BME280;50122;56.330;43.838;2022-08-20T18:05:33;102136.72;;;20.26;43.65
63946;BME280;50122;56.330;43.838;2022-08-20T18:08:19;102135.59;;;20.15;43.50
63946;BME280;50122;56.330;43.838;2022-08-20T18:16:25;102145.09;;;20.04;43.86
63946;BME280;50122;56.330;43.838;2022-08-20T18:19:15;102147.97;;;20.01;43.85
63946;BME280;50122;56.330;43.838;2022-08-20T18:22:14;102144.72;;;19.94;44.42
63946;BME280;50122;56.330;43.838;2022-08-20T18:25:02;102146.00;;;19.87;44.66
63946;BME280;50122;56.330;43.838;2022-08-20T18:27:41;102135.13;;;19.73;44.48
63946;BME280;50122;56.330;43.838;2022-08-20T18:30:16;102136.78;;;19.75;44.45
63946;BME280;50122;56.330;43.838;2022-08-20T18:32:44;102137.97;;;19.70;44.64
63946;BME280;50122;56.330;43.838;2022-08-20T18:40:48;102131.69;;;19.53;44.26
63946;BME280;50122;56.330;43.838;2022-08-20T18:43:27;102135.31;;;19.52;44.45
63946;BME280;50122;56.330;43.838;2022-08-20T18:46:11;102132.03;;;19.47;45.38
63946;BME280;50122;56.330;43.838;2022-08-20T18:48:51;102146.78;;;19.38;45.46
63946;BME280;50122;56.330;43.838;2022-08-20T18:51:20;102154.09;;;19.35;46.13
63946;BME280;50122;56.330;43.838;2022-08-20T18:53:49;102151.88;;;19.25;46.16
63946;BME280;50122;56.330;43.838;2022-08-20T18:56:29;102150.47;;;19.18;46.31
63946;BME280;50122;56.330;43.838;2022-08-20T18:59:05;102149.03;;;19.11;46.88
63946;BME280;50122;56.330;43.838;2022-08-20T19:01:35;102150.28;;;19.04;46.59
63946;BME280;50122;56.330;43.838;2022-08-20T19:04:15;102148.78;;;18.98;47.43
63946;BME280;50122;56.330;43.838;2022-08-20T19:06:52;102151.63;;;18.95;47.82
63946;BME280;50122;56.330;43.838;2022-08-20T19:15:12;102153.50;;;18.74;48.54
63946;BME280;50122;56.330;43.838;2022-08-20T19:18:08;102159.16;;;18.68;48.78
63946;BME280;50122;56.330;43.838;2022-08-20T19:20:40;102156.03;;;18.58;48.79
63946;BME280;50122;56.330;43.838;2022-08-20T19:23:18;102158.94;;;18.53;49.91
63946;BME280;50122;56.330;43.838;2022-08-20T19:26:00;102157.72;;;18.42;50.13
63946;BME280;50122;56.330;43.838;2022-08-20T19:28:32;102158.97;;;18.34;50.53
63946;BME280;50122;56.330;43.838;2022-08-20T19:31:11;102166.31;;;18.29;50.71
63946;BME280;50122;56.330;43.838;2022-08-20T19:33:39;102161.59;;;18.15;51.02
63946;BME280;50122;56.330;43.838;2022-08-20T19:36:22;102154.72;;;18.10;51.36
63946;BME280;50122;56.330;43.838;2022-08-20T19:39:11;102161.03;;;18.09;52.01
63946;BME280;50122;56.330;43.838;2022-08-20T19:41:49;102162.31;;;18.00;52.33
63946;BME280;50122;56.330;43.838;2022-08-20T19:46:56;102160.28;;;17.84;53.15
63946;BME280;50122;56.330;43.838;2022-08-20T19:49:45;102165.78;;;17.81;53.02
63946;BME280;50122;56.330;43.838;2022-08-20T19:52:32;102166.97;;;17.74;53.64
63946;BME280;50122;56.330;43.838;2022-08-20T19:55:01;102169.97;;;17.66;53.68
63946;BME280;50122;56.330;43.838;2022-08-20T19:57:29;102165.91;;;17.58;54.52
63946;BME280;50122;56.330;43.838;2022-08-20T20:00:07;102138.25;;;17.38;54.79
63946;BME280;50122;56.330;43.838;2022-08-20T20:02:35;102140.38;;;17.30;55.08
63946;BME280;50122;56.330;43.838;2022-08-20T20:05:07;102165.81;;;17.39;55.17
63946;BME280;50122;56.330;43.838;2022-08-20T20:07:38;102171.50;;;17.31;55.22
63946;BME280;50122;56.330;43.838;2022-08-20T20:10:09;102168.06;;;17.27;55.09
63946;BME280;50122;56.330;43.838;2022-08-20T20:12:37;102160.19;;;17.24;55.84
63946;BME280;50122;56.330;43.838;2022-08-20T20:15:05;102157.84;;;17.16;56.69
63946;BME280;50122;56.330;43.838;2022-08-20T20:17:34;102157.91;;;17.15;56.71
63946;BME280;50122;56.330;43.838;2022-08-20T20:23:13;102164.53;;;17.06;56.95
63946;BME280;50122;56.330;43.838;2022-08-20T20:25:42;102167.31;;;17.03;57.05
63946;BME280;50122;56.330;43.838;2022-08-20T20:28:25;102164.09;;;16.95;57.05
63946;BME280;50122;56.330;43.838;2022-08-20T20:30:52;102156.13;;;16.93;57.21
63946;BME280;50122;56.330;43.838;2022-08-20T20:33:29;102163.66;;;16.82;57.69
63946;BME280;50122;56.330;43.838;2022-08-20T20:38:49;102096.03;;;16.37;57.91
63946;BME280;50122;56.330;43.838;2022-08-20T20:41:22;102144.34;;;16.53;58.35
63946;BME280;50122;56.330;43.838;2022-08-20T20:44:05;102160.09;;;16.59;59.05
63946;BME280;50122;56.330;43.838;2022-08-20T20:46:33;102163.66;;;16.60;59.21
63946;BME280;50122;56.330;43.838;2022-08-20T20:51:40;102154.38;;;16.46;60.10
63946;BME280;50122;56.330;43.838;2022-08-20T20:57:04;102168.66;;;16.45;59.95
63946;BME280;50122;56.330;43.838;2022-08-20T20:59:34;102166.06;;;16.44;60.26
63946;BME280;50122;56.330;43.838;2022-08-20T21:02:02;102170.63;;;16.40;60.11
63946;BME280;50122;56.330;43.838;2022-08-20T21:04:29;102162.03;;;16.32;60.66
63946;BME280;50122;56.330;43.838;2022-08-20T21:07:03;102172.78;;;16.30;60.92
63946;BME280;50122;56.330;43.838;2022-08-20T21:09:37;102171.13;;;16.28;61.14
63946;BME280;50122;56.330;43.838;2022-08-20T21:12:06;102166.00;;;16.22;60.54
63946;BME280;50122;56.330;43.838;2022-08-20T21:14:34;102167.03;;;16.18;61.14
63946;BME280;50122;56.330;43.838;2022-08-20T21:17:02;102172.53;;;16.13;61.17
63946;BME280;50122;56.330;43.838;2022-08-20T21:19:31;102173.50;;;16.12;61.72
63946;BME280;50122;56.330;43.838;2022-08-20T21:21:58;102172.78;;;16.07;61.99
63946;BME280;50122;56.330;43.838;2022-08-20T21:24:25;102167.50;;;16.05;62.38
63946;BME280;50122;56.330;43.838;2022-08-20T21:26:52;102165.28;;;15.93;62.15
63946;BME280;50122;56.330;43.838;2022-08-20T21:29:26;102170.47;;;15.96;62.24
63946;BME280;50122;56.330;43.838;2022-08-20T21:31:58;102172.59;;;15.88;62.62
63946;BME280;50122;56.330;43.838;2022-08-20T21:34:25;102162.94;;;15.84;62.59
63946;BME280;50122;56.330;43.838;2022-08-20T21:36:52;102159.59;;;15.77;62.79
63946;BME280;50122;56.330;43.838;2022-08-20T21:39:21;102163.13;;;15.79;62.92
63946;BME280;50122;56.330;43.838;2022-08-20T21:41:49;102151.00;;;15.69;63.04
63946;BME280;50122;56.330;43.838;2022-08-20T21:44:21;102167.75;;;15.72;62.86
63946;BME280;50122;56.330;43.838;2022-08-20T21:46:51;102169.69;;;15.69;63.34
63946;BME280;50122;56.330;43.838;2022-08-20T21:49:19;102176.03;;;15.65;63.60
63946;BME280;50122;56.330;43.838;2022-08-20T21:51:47;102177.22;;;15.56;63.47
63946;BME280;50122;56.330;43.838;2022-08-20T21:54:16;102171.13;;;15.52;63.89
63946;BME280;50122;56.330;43.838;2022-08-20T21:56:47;102169.59;;;15.45;63.79
63946;BME280;50122;56.330;43.838;2022-08-20T21:59:15;102172.34;;;15.42;64.22
63946;BME280;50122;56.330;43.838;2022-08-20T22:01:43;102172.63;;;15.34;64.38
63946;BME280;50122;56.330;43.838;2022-08-20T22:04:09;102184.19;;;15.33;64.55
63946;BME280;50122;56.330;43.838;2022-08-20T22:06:36;102177.28;;;15.27;64.72
63946;BME280;50122;56.330;43.838;2022-08-20T22:09:03;102187.06;;;15.27;65.01
63946;BME280;50122;56.330;43.838;2022-08-20T22:11:30;102168.19;;;15.06;64.94
63946;BME280;50122;56.330;43.838;2022-08-20T22:13:57;102161.25;;;15.02;65.17
63946;BME280;50122;56.330;43.838;2022-08-20T22:16:24;102189.44;;;15.09;65.61
63946;BME280;50122;56.330;43.838;2022-08-20T22:18:51;102186.88;;;15.05;65.67
63946;BME280;50122;56.330;43.838;2022-08-20T22:21:21;102184.28;;;15.03;65.46
63946;BME280;50122;56.330;43.838;2022-08-20T22:23:56;102181.97;;;14.92;65.87
63946;BME280;50122;56.330;43.838;2022-08-20T22:26:23;102131.44;;;14.63;66.09
63946;BME280;50122;56.330;43.838;2022-08-20T22:28:53;102190.00;;;14.91;66.18
63946;BME280;50122;56.330;43.838;2022-08-20T22:31:23;102196.44;;;14.84;66.46
63946;BME280;50122;56.330;43.838;2022-08-20T22:33:51;102187.75;;;14.77;66.16
63946;BME280;50122;56.330;43.838;2022-08-20T22:36:18;102183.59;;;14.68;66.65
63946;BME280;50122;56.330;43.838;2022-08-20T22:38:45;102186.41;;;14.64;66.74
63946;BME280;50122;56.330;43.838;2022-08-20T22:41:21;102167.56;;;14.40;67.05
63946;BME280;50122;56.330;43.838;2022-08-20T22:43:48;102168.56;;;14.37;67.36
63946;BME280;50122;56.330;43.838;2022-08-20T22:46:25;102207.06;;;14.54;67.57
63946;BME280;50122;56.330;43.838;2022-08-20T22:48:53;102193.09;;;14.46;67.50
63946;BME280;50122;56.330;43.838;2022-08-20T22:51:22;102205.50;;;14.47;67.14
63946;BME280;50122;56.330;43.838;2022-08-20T22:53:51;102197.72;;;14.40;67.70
63946;BME280;50122;56.330;43.838;2022-08-20T22:56:20;102187.38;;;14.30;68.12
63946;BME280;50122;56.330;43.838;2022-08-20T22:58:48;102201.47;;;14.33;68.09
63946;BME280;50122;56.330;43.838;2022-08-20T23:01:16;102206.03;;;14.28;67.88
63946;BME280;50122;56.330;43.838;2022-08-20T23:03:44;102216.81;;;14.23;68.08
63946;BME280;50122;56.330;43.838;2022-08-20T23:06:11;102211.63;;;14.19;68.20
63946;BME280;50122;56.330;43.838;2022-08-20T23:08:39;102221.50;;;14.14;68.25
63946;BME280;50122;56.330;43.838;2022-08-20T23:11:07;102211.22;;;14.01;68.53
63946;BME280;50122;56.330;43.838;2022-08-20T23:13:34;102206.06;;;13.95;68.94
63946;BME280;50122;56.330;43.838;2022-08-20T23:16:01;102215.84;;;13.95;68.81
63946;BME280;50122;56.330;43.838;2022-08-20T23:18:28;102217.84;;;13.85;69.04
63946;BME280;50122;56.330;43.838;2022-08-20T23:20:56;102228.47;;;13.85;69.22
63946;BME280;50122;56.330;43.838;2022-08-20T23:23:25;102231.28;;;13.80;69.44
63946;BME280;50122;56.330;43.838;2022-08-20T23:25:52;102225.19;;;13.77;69.77
63946;BME280;50122;56.330;43.838;2022-08-20T23:28:21;102225.28;;;13.72;69.93
63946;BME280;50122;56.330;43.838;2022-08-20T23:30:49;102202.66;;;13.57;70.03
63946;BME280;50122;56.330;43.838;2022-08-20T23:33:18;102227.16;;;13.68;70.17
63946;BME280;50122;56.330;43.838;2022-08-20T23:35:45;102225.41;;;13.67;70.24
63946;BME280;50122;56.330;43.838;2022-08-20T23:38:12;102226.47;;;13.60;70.67
63946;BME280;50122;56.330;43.838;2022-08-20T23:40:43;102217.00;;;13.50;70.48
63946;BME280;50122;56.330;43.838;2022-08-20T23:43:10;102216.13;;;13.49;70.79
63946;BME280;50122;56.330;43.838;2022-08-20T23:45:38;102220.66;;;13.44;70.97
63946;BME280;50122;56.330;43.838;2022-08-20T23:48:06;102220.66;;;13.44;70.88
63946;BME280;50122;56.330;43.838;2022-08-20T23:50:33;102211.19;;;13.32;70.94
63946;BME280;50122;56.330;43.838;2022-08-20T23:53:00;102173.78;;;13.07;70.68
63946;BME280;50122;56.330;43.838;2022-08-20T23:55:28;102210.50;;;13.24;70.92
63946;BME280;50122;56.330;43.838;2022-08-20T23:57:58;102222.81;;;13.28;71.26
